sensor_id;sensor_type;location;lat;lon;timestamp;pressure;altitude;pressure_sealevel;temperature;humidity
39309;BME280;26019;47.510;19.122;2023-08-12T00:08:21;100900.47;;;16.96;100.00
39309;BME280;26019;47.510;19.122;2023-08-12T00:18:22;100887.00;;;16.73;100.00
39309;BME280;26019;47.510;19.122;2023-08-12T00:28:24;100891.88;;;16.51;100.00
39309;BME280;26019;47.510;19.122;2023-08-12T00:38:26;100888.16;;;16.62;100.00
39309;BME280;26019;47.510;19.122;2023-08-12T00:48:28;100888.56;;;16.43;100.00
39309;BME280;26019;47.510;19.122;2023-08-12T00:58:39;100891.59;;;16.23;100.00
39309;BME280;26019;47.510;19.122;2023-08-12T01:08:42;100887.44;;;16.12;100.00
39309;BME280;26019;47.510;19.122;2023-08-12T01:18:44;100896.41;;;15.97;100.00
39309;BME280;26019;47.510;19.122;2023-08-12T01:28:46;100904.22;;;15.99;100.00
39309;BME280;26019;47.510;19.122;2023-08-12T01:38:51;100901.81;;;15.88;100.00
39309;BME280;26019;47.510;19.122;2023-08-12T01:48:52;100907.78;;;15.95;100.00
39309;BME280;26019;47.510;19.122;2023-08-12T01:58:54;100897.84;;;15.65;100.00
39309;BME280;26019;47.510;19.122;2023-08-12T02:08:56;100891.47;;;15.82;100.00
39309;BME280;26019;47.510;19.122;2023-08-12T02:18:58;100898.25;;;15.42;100.00
39309;BME280;26019;47.510;19.122;2023-08-12T02:29:00;100886.81;;;15.51;100.00
39309;BME280;26019;47.510;19.122;2023-08-12T02:39:01;100887.72;;;15.50;100.00
39309;BME280;26019;47.510;19.122;2023-08-12T02:49:03;100884.41;;;15.38;100.00
39309;BME280;26019;47.510;19.122;2023-08-12T02:59:05;100883.78;;;15.24;100.00
39309;BME280;26019;47.510;19.122;2023-08-12T03:09:07;100880.38;;;15.22;100.00
39309;BME280;26019;47.510;19.122;2023-08-12T03:19:09;100883.94;;;15.15;100.00
39309;BME280;26019;47.510;19.122;2023-08-12T03:29:11;100893.47;;;15.16;100.00
39309;BME280;26019;47.510;19.122;2023-08-12T03:39:13;100895.09;;;15.23;100.00
39309;BME280;26019;47.510;19.122;2023-08-12T03:49:14;100906.50;;;15.16;100.00
39309;BME280;26019;47.510;19.122;2023-08-12T03:59:16;100905.56;;;15.18;100.00
39309;BME280;26019;47.510;19.122;2023-08-12T04:09:18;100920.13;;;15.32;100.00
39309;BME280;26019;47.510;19.122;2023-08-12T04:19:21;100917.25;;;15.47;100.00
39309;BME280;26019;47.510;19.122;2023-08-12T04:29:23;100927.28;;;15.71;100.00
39309;BME280;26019;47.510;19.122;2023-08-12T04:39:25;100929.53;;;15.92;100.00
39309;BME280;26019;47.510;19.122;2023-08-12T04:49:28;100935.81;;;16.27;100.00
39309;BME280;26019;47.510;19.122;2023-08-12T04:59:30;100945.00;;;16.47;100.00
39309;BME280;26019;47.510;19.122;2023-08-12T05:09:33;100934.50;;;16.90;100.00
39309;BME280;26019;47.510;19.122;2023-08-12T05:19:34;100936.81;;;17.41;100.00
39309;BME280;26019;47.510;19.122;2023-08-12T05:29:37;100930.06;;;18.33;100.00
39309;BME280;26019;47.510;19.122;2023-08-12T05:39:39;100937.16;;;18.30;100.00
39309;BME280;26019;47.510;19.122;2023-08-12T05:49:50;100941.53;;;18.59;100.00
39309;BME280;26019;47.510;19.122;2023-08-12T05:59:57;100936.16;;;18.92;100.00
39309;BME280;26019;47.510;19.122;2023-08-12T06:10:00;100933.13;;;19.35;100.00
39309;BME280;26019;47.510;19.122;2023-08-12T06:20:02;100926.91;;;19.90;98.76
39309;BME280;26019;47.510;19.122;2023-08-12T06:30:05;100929.81;;;20.31;87.88
39309;BME280;26019;47.510;19.122;2023-08-12T06:40:07;100926.94;;;20.61;80.88
39309;BME280;26019;47.510;19.122;2023-08-12T06:50:17;100911.00;;;21.12;75.95
39309;BME280;26019;47.510;19.122;2023-08-12T07:00:19;100919.53;;;21.60;70.01
39309;BME280;26019;47.510;19.122;2023-08-12T07:10:23;100927.94;;;22.29;69.48
39309;BME280;26019;47.510;19.122;2023-08-12T07:20:29;100927.88;;;22.68;67.29
39309;BME280;26019;47.510;19.122;2023-08-12T07:30:30;100916.34;;;22.90;63.90
39309;BME280;26019;47.510;19.122;2023-08-12T07:40:32;100922.53;;;23.61;57.60
39309;BME280;26019;47.510;19.122;2023-08-12T07:50:41;100925.53;;;24.22;56.32
39309;BME280;26019;47.510;19.122;2023-08-12T08:00:43;100909.06;;;24.67;52.82
39309;BME280;26019;47.510;19.122;2023-08-12T08:10:45;100915.41;;;25.11;50.47
39309;BME280;26019;47.510;19.122;2023-08-12T08:20:47;100908.59;;;25.37;49.53
39309;BME280;26019;47.510;19.122;2023-08-12T08:30:49;100906.06;;;25.95;48.88
39309;BME280;26019;47.510;19.122;2023-08-12T08:40:51;100909.81;;;26.49;46.36
39309;BME280;26019;47.510;19.122;2023-08-12T08:50:53;100906.66;;;26.57;46.23
39309;BME280;26019;47.510;19.122;2023-08-12T09:00:56;100899.53;;;26.72;44.74
39309;BME280;26019;47.510;19.122;2023-08-12T09:10:59;100897.97;;;27.50;42.00
39309;BME280;26019;47.510;19.122;2023-08-12T09:21:03;100888.94;;;31.49;34.54
39309;BME280;26019;47.510;19.122;2023-08-12T09:31:05;100895.91;;;34.45;30.08
39309;BME280;26019;47.510;19.122;2023-08-12T09:41:07;100887.16;;;36.95;26.74
39309;BME280;26019;47.510;19.122;2023-08-12T09:51:09;100873.56;;;38.33;21.98
39309;BME280;26019;47.510;19.122;2023-08-12T10:01:12;100869.66;;;39.50;20.95
39309;BME280;26019;47.510;19.122;2023-08-12T10:11:15;100862.19;;;39.07;20.58
39309;BME280;26019;47.510;19.122;2023-08-12T10:21:18;100860.81;;;43.02;18.81
39309;BME280;26019;47.510;19.122;2023-08-12T10:31:20;100864.78;;;39.16;18.45
39309;BME280;26019;47.510;19.122;2023-08-12T10:41:23;100841.66;;;41.80;18.54
39309;BME280;26019;47.510;19.122;2023-08-12T10:51:54;100830.94;;;43.61;16.61
39309;BME280;26019;47.510;19.122;2023-08-12T11:02:06;100828.50;;;43.39;16.69
39309;BME280;26019;47.510;19.122;2023-08-12T11:12:10;100824.22;;;43.70;14.72
39309;BME280;26019;47.510;19.122;2023-08-12T11:22:13;100811.00;;;44.82;16.14
39309;BME280;26019;47.510;19.122;2023-08-12T11:32:16;100802.75;;;44.95;14.52
39309;BME280;26019;47.510;19.122;2023-08-12T11:42:18;100799.53;;;47.28;13.71
39309;BME280;26019;47.510;19.122;2023-08-12T11:52:20;100792.97;;;44.11;16.25
39309;BME280;26019;47.510;19.122;2023-08-12T12:02:22;100779.31;;;42.07;15.42
39309;BME280;26019;47.510;19.122;2023-08-12T12:12:24;100767.63;;;42.61;16.21
39309;BME280;26019;47.510;19.122;2023-08-12T12:22:31;100752.19;;;42.07;18.28
39309;BME280;26019;47.510;19.122;2023-08-12T12:32:35;100754.00;;;46.21;13.17
39309;BME280;26019;47.510;19.122;2023-08-12T12:42:37;100743.34;;;44.79;14.85
39309;BME280;26019;47.510;19.122;2023-08-12T12:52:40;100736.03;;;46.01;14.57
39309;BME280;26019;47.510;19.122;2023-08-12T13:02:45;100719.78;;;46.42;14.92
39309;BME280;26019;47.510;19.122;2023-08-12T13:12:52;100719.81;;;43.71;15.65
39309;BME280;26019;47.510;19.122;2023-08-12T13:22:56;100711.59;;;47.82;13.12
39309;BME280;26019;47.510;19.122;2023-08-12T13:32:58;100709.16;;;43.63;15.76
39309;BME280;26019;47.510;19.122;2023-08-12T13:43:02;100691.41;;;45.11;15.14
39309;BME280;26019;47.510;19.122;2023-08-12T13:53:04;100690.66;;;47.41;13.16
39309;BME280;26019;47.510;19.122;2023-08-12T14:03:06;100675.06;;;47.42;12.95
39309;BME280;26019;47.510;19.122;2023-08-12T14:13:08;100677.28;;;50.38;11.63
39309;BME280;26019;47.510;19.122;2023-08-12T14:23:12;100671.44;;;48.44;12.52
39309;BME280;26019;47.510;19.122;2023-08-12T14:33:14;100658.03;;;46.53;12.97
39309;BME280;26019;47.510;19.122;2023-08-12T14:43:16;100654.53;;;48.97;12.54
39309;BME280;26019;47.510;19.122;2023-08-12T14:53:18;100653.66;;;43.70;15.31
39309;BME280;26019;47.510;19.122;2023-08-12T15:03:20;100644.53;;;43.26;15.91
39309;BME280;26019;47.510;19.122;2023-08-12T15:13:22;100620.19;;;42.53;16.43
39309;BME280;26019;47.510;19.122;2023-08-12T15:23:23;100608.69;;;46.72;14.54
39309;BME280;26019;47.510;19.122;2023-08-12T15:33:25;100602.81;;;43.07;15.96
39309;BME280;26019;47.510;19.122;2023-08-12T15:43:32;100603.47;;;41.02;18.55
39309;BME280;26019;47.510;19.122;2023-08-12T15:53:34;100602.59;;;40.95;18.80
39309;BME280;26019;47.510;19.122;2023-08-12T16:03:38;100593.13;;;41.53;17.77
39309;BME280;26019;47.510;19.122;2023-08-12T16:13:40;100584.13;;;40.63;18.87
39309;BME280;26019;47.510;19.122;2023-08-12T16:23:45;100589.66;;;40.48;18.70
39309;BME280;26019;47.510;19.122;2023-08-12T16:33:46;100583.66;;;41.01;18.90
39309;BME280;26019;47.510;19.122;2023-08-12T16:43:48;100581.13;;;39.81;20.51
39309;BME280;26019;47.510;19.122;2023-08-12T16:53:50;100587.22;;;37.28;22.71
39309;BME280;26019;47.510;19.122;2023-08-12T17:03:53;100584.59;;;34.81;26.32
39309;BME280;26019;47.510;19.122;2023-08-12T17:13:55;100591.31;;;29.44;35.81
39309;BME280;26019;47.510;19.122;2023-08-12T17:23:58;100595.66;;;28.07;37.82
39309;BME280;26019;47.510;19.122;2023-08-12T17:34:01;100597.44;;;27.46;39.36
39309;BME280;26019;47.510;19.122;2023-08-12T17:44:03;100598.66;;;26.79;41.42
39309;BME280;26019;47.510;19.122;2023-08-12T17:54:06;100605.75;;;26.39;42.18
39309;BME280;26019;47.510;19.122;2023-08-12T18:04:08;100614.97;;;25.66;47.39
39309;BME280;26019;47.510;19.122;2023-08-12T18:14:09;100615.66;;;25.83;44.55
39309;BME280;26019;47.510;19.122;2023-08-12T18:24:11;100616.66;;;25.11;47.09
39309;BME280;26019;47.510;19.122;2023-08-12T18:34:13;100619.78;;;24.74;49.51
39309;BME280;26019;47.510;19.122;2023-08-12T18:44:15;100641.03;;;24.42;51.23
39309;BME280;26019;47.510;19.122;2023-08-12T18:54:19;100641.28;;;24.23;51.60
39309;BME280;26019;47.510;19.122;2023-08-12T19:04:21;100658.75;;;23.93;55.51
39309;BME280;26019;47.510;19.122;2023-08-12T19:14:24;100656.66;;;23.84;56.86
39309;BME280;26019;47.510;19.122;2023-08-12T19:24:26;100662.50;;;23.73;56.29
39309;BME280;26019;47.510;19.122;2023-08-12T19:34:27;100665.22;;;23.23;60.36
39309;BME280;26019;47.510;19.122;2023-08-12T19:44:32;100673.63;;;22.96;63.77
39309;BME280;26019;47.510;19.122;2023-08-12T19:54:34;100671.00;;;22.79;64.35
39309;BME280;26019;47.510;19.122;2023-08-12T20:04:41;100683.81;;;22.51;69.11
39309;BME280;26019;47.510;19.122;2023-08-12T20:14:44;100690.19;;;22.28;71.24
39309;BME280;26019;47.510;19.122;2023-08-12T20:24:50;100692.72;;;22.12;78.01
39309;BME280;26019;47.510;19.122;2023-08-12T20:34:52;100687.50;;;21.74;85.34
39309;BME280;26019;47.510;19.122;2023-08-12T20:44:54;100690.59;;;21.25;92.61
39309;BME280;26019;47.510;19.122;2023-08-12T20:54:56;100697.56;;;21.26;90.89
39309;BME280;26019;47.510;19.122;2023-08-12T21:04:58;100700.00;;;21.10;94.59
39309;BME280;26019;47.510;19.122;2023-08-12T21:15:01;100702.78;;;21.07;98.66
39309;BME280;26019;47.510;19.122;2023-08-12T21:25:04;100698.63;;;20.59;100.00
39309;BME280;26019;47.510;19.122;2023-08-12T21:35:16;100701.94;;;20.63;100.00
39309;BME280;26019;47.510;19.122;2023-08-12T21:45:18;100698.53;;;20.40;100.00
39309;BME280;26019;47.510;19.122;2023-08-12T21:55:20;100695.00;;;20.19;100.00
39309;BME280;26019;47.510;19.122;2023-08-12T22:05:26;100688.91;;;19.96;100.00
39309;BME280;26019;47.510;19.122;2023-08-12T22:15:28;100685.53;;;20.15;100.00
39309;BME280;26019;47.510;19.122;2023-08-12T22:25:34;100679.50;;;19.91;100.00
39309;BME280;26019;47.510;19.122;2023-08-12T22:35:38;100674.72;;;19.78;100.00
39309;BME280;26019;47.510;19.122;2023-08-12T22:45:42;100665.19;;;19.53;100.00
39309;BME280;26019;47.510;19.122;2023-08-12T22:55:44;100669.81;;;19.21;100.00
39309;BME280;26019;47.510;19.122;2023-08-12T23:05:47;100666.84;;;19.32;100.00
39309;BME280;26019;47.510;19.122;2023-08-12T23:15:51;100664.47;;;19.24;100.00
39309;BME280;26019;47.510;19.122;2023-08-12T23:25:53;100661.34;;;19.15;100.00
39309;BME280;26019;47.510;19.122;2023-08-12T23:35:54;100652.97;;;19.05;100.00
39309;BME280;26019;47.510;19.122;2023-08-12T23:46:00;100671.47;;;19.00;100.00
39309;BME280;26019;47.510;19.122;2023-08-12T23:56:04;100665.44;;;18.71;100.00
